Aalst, Belgium
Current Conditions -  °F | °C
As of 12:20 AM on Saturday 20 Dec 2014 (Local Time) from EBBR Reporting Station
Clear Clear  
Wind Chill: 33°   Ceiling: Unl
Heat Index: 41°   Visibility: 6mi
Dew Point: 36°   Wind: 15mph
Humidity: 81%   Direction: 250°WSW
Pressure: 30.18"   Gusts: NA
Location:  50.94°N, 4.04°E
Report Text: EBBR 192320Z 25013KT CAVOK 05/02 Q1022 NOSIG
Loading
Personal Weather Stations






























Interactive Weather Map New forecast layout! Learn more

10-Day Weather Forecast

Advertisements
Track Severe Weather on mobile